Time;durP1;ratioP1;P1;durP2;ratioP2;P2;SDS_P1;SDS_P2;PMS_P1;PMS_P2;Temp;Humidity;BMP_temperature;BMP_pressure;BME280_temperature;BME280_humidity;BME280_pressure;Samples;Min_cycle;Max_cycle;Signal;HPM_P1;HPM_P2
2022/11/26 00:02:30;;;;;;;21.35;9.23;;;;;;;6.95;100.00;102506.06;5301015;28;20023;-69
2022/11/26 00:05:01;;;;;;;28.42;10.48;;;;;;;6.95;100.00;102503.47;5301348;28;20047;-68
2022/11/26 00:07:32;;;;;;;21.95;10.27;;;;;;;6.96;100.00;102507.75;5300162;28;20146;-68
2022/11/26 00:10:07;;;;;;;22.10;10.27;;;;;;;6.94;100.00;102507.00;5304057;28;20032;-68
2022/11/26 00:12:38;;;;;;;20.23;9.52;;;;;;;6.96;100.00;102510.38;5303224;28;20419;-68
2022/11/26 00:15:17;;;;;;;19.02;9.07;;;;;;;7.04;100.00;102514.31;5303444;28;20024;-68
2022/11/26 00:17:50;;;;;;;20.38;9.95;;;;;;;6.86;100.00;102514.25;5301686;28;20031;-68
2022/11/26 00:20:26;;;;;;;21.77;9.35;;;;;;;6.95;100.00;102512.13;5300850;28;20460;-68
2022/11/26 00:23:01;;;;;;;19.98;9.52;;;;;;;6.89;100.00;102512.38;5297252;28;20067;-68
2022/11/26 00:25:44;;;;;;;18.48;9.05;;;;;;;7.01;100.00;102513.63;5300961;28;20024;-68
2022/11/26 00:28:32;;;;;;;19.38;8.95;;;;;;;6.98;100.00;102521.59;5301586;28;20077;-67
2022/11/26 00:31:11;;;;;;;20.42;8.35;;;;;;;6.90;100.00;102513.25;5299398;28;20012;-68
2022/11/26 00:33:42;;;;;;;19.10;9.18;;;;;;;6.82;100.00;102524.84;5300210;28;20044;-68
2022/11/26 00:36:26;;;;;;;20.90;9.50;;;;;;;6.88;100.00;102502.88;5303388;28;20115;-68
2022/11/26 00:39:03;;;;;;;18.77;8.80;;;;;;;6.94;100.00;102514.81;5303536;28;20345;-68
2022/11/26 00:41:37;;;;;;;16.50;9.00;;;;;;;6.86;100.00;102524.69;5298860;28;20519;-68
2022/11/26 00:44:23;;;;;;;18.95;9.60;;;;;;;6.96;100.00;102520.78;5302669;28;20031;-68
2022/11/26 00:46:55;;;;;;;20.40;9.05;;;;;;;6.76;100.00;102526.84;5303518;28;20412;-67
2022/11/26 00:49:27;;;;;;;20.70;9.23;;;;;;;6.77;100.00;102525.94;5303246;28;20044;-67
2022/11/26 00:51:59;;;;;;;23.52;9.45;;;;;;;6.69;100.00;102515.81;5303286;28;20028;-69
2022/11/26 00:54:31;;;;;;;19.77;9.23;;;;;;;6.74;100.00;102531.25;5302046;28;20078;-68
2022/11/26 00:57:02;;;;;;;18.00;9.05;;;;;;;6.72;100.00;102527.88;5299025;28;21326;-68
2022/11/26 00:59:33;;;;;;;20.48;9.63;;;;;;;6.71;100.00;102521.84;5299394;28;20016;-69
2022/11/26 01:02:04;;;;;;;23.02;9.98;;;;;;;6.73;100.00;102532.19;5298291;28;20034;-68
2022/11/26 01:04:36;;;;;;;23.38;10.80;;;;;;;6.70;100.00;102532.28;5295559;28;20074;-67
2022/11/26 01:07:09;;;;;;;26.65;9.88;;;;;;;6.68;100.00;102531.53;5299895;28;20026;-68
2022/11/26 01:09:43;;;;;;;;;;;;;;;7.21;100.00;102534.47;5299346;28;20715;-68
2022/11/26 01:12:14;;;;;;;18.52;9.52;;;;;;;6.72;100.00;102533.09;5299571;28;20562;-68
2022/11/26 01:14:45;;;;;;;16.10;8.75;;;;;;;6.65;100.00;102532.50;5299644;28;20110;-68
2022/11/26 01:17:16;;;;;;;21.23;9.52;;;;;;;6.61;100.00;102530.09;5299263;28;20028;-69
2022/11/26 01:19:48;;;;;;;24.00;10.15;;;;;;;6.56;100.00;102528.53;5298052;28;20027;-68
2022/11/26 01:22:22;;;;;;;23.70;10.30;;;;;;;6.53;100.00;102531.25;5297231;28;20160;-68
2022/11/26 01:24:53;;;;;;;18.92;8.85;;;;;;;6.46;100.00;102521.97;5299315;28;20389;-68
2022/11/26 01:27:24;;;;;;;20.75;8.77;;;;;;;6.43;100.00;102516.91;5299352;28;20024;-68
2022/11/26 01:29:55;;;;;;;19.30;9.70;;;;;;;6.42;100.00;102523.03;5299217;28;20481;-68
2022/11/26 01:32:27;;;;;;;23.80;9.30;;;;;;;6.39;100.00;102525.75;5295897;28;20020;-68
2022/11/26 01:34:58;;;;;;;17.77;9.63;;;;;;;6.38;100.00;102526.66;5299191;28;21244;-68
2022/11/26 01:37:29;;;;;;;17.33;9.60;;;;;;;6.38;100.00;102529.25;5297079;28;20487;-67
2022/11/26 01:40:00;;;;;;;21.00;9.63;;;;;;;6.35;100.00;102526.78;5298904;28;20027;-68
2022/11/26 01:42:45;;;;;;;22.42;9.18;;;;;;;6.52;100.00;102526.97;5298196;28;20035;-68
2022/11/26 01:45:19;;;;;;;22.95;10.38;;;;;;;6.29;100.00;102533.09;5298950;28;20032;-68
2022/11/26 01:47:50;;;;;;;19.85;9.98;;;;;;;6.31;100.00;102533.00;5297327;28;20040;-68
2022/11/26 01:50:53;;;;;;;26.20;10.55;;;;;;;6.55;100.00;102541.59;5299024;28;20038;-68
2022/11/26 01:53:37;;;;;;;18.90;9.07;;;;;;;6.43;100.00;102558.56;5292175;28;20046;-68
2022/11/26 01:56:30;;;;;;;20.98;9.75;;;;;;;6.47;100.00;102557.50;5298976;28;20024;-68
2022/11/26 01:59:19;;;;;;;20.27;8.98;;;;;;;6.46;100.00;102552.38;5298427;28;20028;-69
2022/11/26 02:01:53;;;;;;;17.13;10.30;;;;;;;6.26;100.00;102554.03;5298948;28;20055;-68
2022/11/26 02:04:38;;;;;;;20.30;9.90;;;;;;;6.32;100.00;102552.91;5297583;28;20484;-68
2022/11/26 02:07:09;;;;;;;22.55;10.18;;;;;;;6.21;100.00;102560.31;5297131;28;20030;-68
2022/11/26 02:09:41;;;;;;;19.17;9.70;;;;;;;6.22;100.00;102562.88;5299144;28;20020;-67
2022/11/26 02:12:13;;;;;;;21.05;9.93;;;;;;;6.20;100.00;102561.22;5297946;28;20082;-67
2022/11/26 02:14:44;;;;;;;20.10;10.07;;;;;;;6.19;100.00;102562.13;5296849;28;20061;-68
2022/11/26 02:17:34;;;;;;;16.55;9.55;;;;;;;6.19;100.00;102565.56;5296435;28;20400;-68
2022/11/26 02:20:42;;;;;;;25.17;9.75;;;;;;;6.40;100.00;102573.44;5297924;28;20020;-68
2022/11/26 02:23:42;;;;;;;22.25;9.65;;;;;;;6.41;100.00;102576.00;5298319;28;20039;-69
2022/11/26 02:26:31;;;;;;;20.80;9.57;;;;;;;6.28;100.00;102573.00;5299020;28;20027;-67
2022/11/26 02:29:29;;;;;;;18.73;9.57;;;;;;;6.28;100.00;102573.00;5298110;28;20036;-67
2022/11/26 02:32:16;;;;;;;24.70;11.25;;;;;;;6.31;100.00;102574.66;5286656;28;20108;-68
2022/11/26 02:34:57;;;;;;;21.60;9.82;;;;;;;6.25;100.00;102578.38;5298831;28;20036;-68
2022/11/26 02:37:45;;;;;;;20.50;9.05;;;;;;;6.32;100.00;102569.38;5298300;28;20411;-68
2022/11/26 02:40:17;;;;;;;21.38;9.25;;;;;;;6.16;100.00;102564.84;5295875;28;20025;-68
2022/11/26 02:42:48;;;;;;;21.27;9.53;;;;;;;6.18;100.00;102570.84;5297518;28;20032;-68
2022/11/26 02:45:24;;;;;;;23.15;10.13;;;;;;;6.21;100.00;102575.91;5295851;28;20488;-68
2022/11/26 02:47:59;;;;;;;22.88;10.68;;;;;;;6.18;100.00;102573.47;5299180;28;20043;-69
2022/11/26 02:50:37;;;;;;;24.90;9.75;;;;;;;6.23;100.00;102574.13;5297819;28;20384;-69
2022/11/26 02:53:11;;;;;;;20.70;10.68;;;;;;;6.17;100.00;102582.16;5298071;28;20543;-69
2022/11/26 02:55:47;;;;;;;24.20;10.23;;;;;;;6.22;100.00;102575.03;5296601;28;20016;-68
2022/11/26 02:58:19;;;;;;;19.95;10.43;;;;;;;6.20;100.00;102587.25;5298453;28;20544;-69
2022/11/26 03:00:52;;;;;;;23.48;10.45;;;;;;;6.22;100.00;102593.25;5296488;28;20035;-69
2022/11/26 03:03:29;;;;;;;23.20;10.13;;;;;;;6.26;100.00;102584.41;5297103;28;20051;-69
2022/11/26 03:06:08;;;;;;;29.90;9.57;;;;;;;6.29;100.00;102585.16;5296774;28;20043;-69
2022/11/26 03:08:42;;;;;;;24.60;9.77;;;;;;;6.20;100.00;102595.91;5296838;28;20028;-69
2022/11/26 03:11:13;;;;;;;21.08;8.70;;;;;;;6.23;100.00;102597.53;5296734;28;20031;-69
2022/11/26 03:13:44;;;;;;;20.77;9.35;;;;;;;6.24;100.00;102601.84;5298030;28;20067;-69
2022/11/26 03:16:16;;;;;;;24.70;9.77;;;;;;;6.21;100.00;102610.63;5296291;28;20049;-68
2022/11/26 03:18:47;;;;;;;25.27;9.82;;;;;;;6.19;100.00;102607.22;5295725;28;20077;-70
2022/11/26 03:21:18;;;;;;;27.95;9.73;;;;;;;6.21;100.00;102604.53;5297566;28;20032;-69
2022/11/26 03:23:50;;;;;;;30.15;10.40;;;;;;;6.24;100.00;102609.63;5297922;28;20102;-69
2022/11/26 03:26:21;;;;;;;23.77;9.82;;;;;;;6.24;100.00;102609.63;5297056;28;20023;-69
2022/11/26 03:28:52;;;;;;;21.00;9.07;;;;;;;6.24;100.00;102604.44;5296994;28;20377;-69
2022/11/26 03:31:23;;;;;;;27.95;10.20;;;;;;;6.21;100.00;102617.56;5296031;28;20431;-68
2022/11/26 03:33:55;;;;;;;16.20;8.60;;;;;;;6.19;100.00;102619.38;5295257;28;20032;-68
2022/11/26 03:36:26;;;;;;;22.58;9.18;;;;;;;6.20;100.00;102624.53;5293938;28;20027;-69
2022/11/26 03:38:57;;;;;;;21.33;9.68;;;;;;;6.20;100.00;102629.72;5297137;28;20031;-68
2022/11/26 03:41:28;;;;;;;19.92;9.00;;;;;;;6.19;100.00;102620.22;5297600;28;20035;-69
2022/11/26 03:44:00;;;;;;;25.38;10.38;;;;;;;6.19;100.00;102614.19;5297274;28;20016;-69
2022/11/26 03:46:31;;;;;;;21.08;9.40;;;;;;;6.17;100.00;102615.97;5296783;28;20086;-69
2022/11/26 03:49:02;;;;;;;19.20;9.18;;;;;;;6.16;100.00;102611.69;5296396;28;20040;-69
2022/11/26 03:51:34;;;;;;;20.98;8.98;;;;;;;6.09;100.00;102621.47;5296321;28;20058;-68
2022/11/26 03:54:05;;;;;;;22.02;8.40;;;;;;;6.13;100.00;102620.44;5297166;28;20097;-69
2022/11/26 03:56:37;;;;;;;19.50;9.18;;;;;;;6.08;100.00;102618.03;5296719;28;20388;-70
2022/11/26 03:59:08;;;;;;;23.92;8.57;;;;;;;6.04;100.00;102629.47;5297006;28;20035;-69
2022/11/26 04:01:39;;;;;;;24.55;9.52;;;;;;;6.00;100.00;102634.84;5297218;28;20032;-69
2022/11/26 04:04:11;;;;;;;19.73;8.10;;;;;;;5.94;100.00;102633.28;5296020;28;20062;-69
2022/11/26 04:06:42;;;;;;;19.73;7.93;;;;;;;5.94;100.00;102638.50;5293909;28;20030;-69
2022/11/26 04:09:13;;;;;;;20.85;7.95;;;;;;;5.94;100.00;102635.06;5296821;28;20035;-69
2022/11/26 04:11:44;;;;;;;19.08;7.95;;;;;;;5.95;100.00;102642.81;5295609;28;20028;-69
2022/11/26 04:14:16;;;;;;;16.67;7.60;;;;;;;5.91;100.00;102636.00;5296634;28;20028;-69
2022/11/26 04:16:47;;;;;;;22.02;8.45;;;;;;;5.92;100.00;102644.66;5296970;28;20453;-68
2022/11/26 04:19:18;;;;;;;19.92;6.88;;;;;;;5.87;100.00;102647.38;5297314;28;20024;-69
2022/11/26 04:21:50;;;;;;;17.40;7.28;;;;;;;5.88;100.00;102649.13;5294107;28;20020;-69
2022/11/26 04:24:21;;;;;;;24.20;8.50;;;;;;;5.91;100.00;102649.00;5297544;28;20020;-68
2022/11/26 04:26:52;;;;;;;19.15;7.82;;;;;;;5.90;100.00;102652.50;5295871;28;20024;-69
2022/11/26 04:29:23;;;;;;;18.02;8.63;;;;;;;5.92;100.00;102644.66;5296879;28;20066;-69
2022/11/26 04:31:55;;;;;;;22.00;8.40;;;;;;;5.90;100.00;102644.69;5299162;28;20431;-68
2022/11/26 04:34:26;;;;;;;21.95;8.30;;;;;;;5.94;100.00;102642.84;5301051;28;20047;-69
2022/11/26 04:36:57;;;;;;;19.60;7.95;;;;;;;5.93;100.00;102638.56;5301305;28;20102;-68
2022/11/26 04:39:29;;;;;;;20.58;8.15;;;;;;;5.93;100.00;102649.81;5299450;28;20020;-69
2022/11/26 04:42:00;;;;;;;22.80;8.32;;;;;;;5.92;100.00;102645.53;5300856;28;20027;-69
2022/11/26 04:44:31;;;;;;;19.00;7.88;;;;;;;5.96;100.00;102651.47;5300847;28;20031;-68
2022/11/26 04:47:03;;;;;;;20.63;7.95;;;;;;;5.93;100.00;102656.78;5298796;28;20443;-69
2022/11/26 04:49:34;;;;;;;20.98;8.68;;;;;;;5.90;100.00;102656.84;5299616;28;20036;-69
2022/11/26 04:52:05;;;;;;;27.02;8.02;;;;;;;5.88;100.00;102656.91;5297904;28;20038;-69
2022/11/26 04:54:37;;;;;;;23.80;7.68;;;;;;;5.88;100.00;102663.88;5299376;28;20105;-69
2022/11/26 04:57:08;;;;;;;21.63;8.02;;;;;;;5.82;100.00;102650.16;5299921;28;20036;-69
2022/11/26 04:59:39;;;;;;;19.45;8.68;;;;;;;5.85;100.00;102652.66;5300549;28;20107;-69
2022/11/26 05:02:10;;;;;;;20.75;8.52;;;;;;;5.82;100.00;102649.31;5298375;28;20027;-69
2022/11/26 05:04:42;;;;;;;22.85;8.60;;;;;;;5.77;100.00;102648.66;5299042;28;20106;-69
2022/11/26 05:07:13;;;;;;;24.55;8.02;;;;;;;5.74;100.00;102651.34;5297791;28;20028;-69
2022/11/26 05:09:44;;;;;;;23.15;7.47;;;;;;;5.75;100.00;102653.88;5300711;28;20031;-69
2022/11/26 05:12:15;;;;;;;27.75;8.23;;;;;;;5.72;100.00;102654.03;5299115;28;20053;-69
2022/11/26 05:14:47;;;;;;;23.15;8.60;;;;;;;5.76;100.00;102659.97;5299655;28;20027;-69
2022/11/26 05:17:18;;;;;;;23.85;8.23;;;;;;;5.77;100.00;102665.09;5300290;28;20076;-69
2022/11/26 05:19:49;;;;;;;21.33;8.23;;;;;;;5.77;100.00;102674.66;5300030;28;20024;-68
2022/11/26 05:22:20;;;;;;;18.85;8.05;;;;;;;5.77;100.00;102667.69;5299839;28;20028;-69
2022/11/26 05:24:52;;;;;;;23.48;8.15;;;;;;;5.70;100.00;102671.41;5298032;28;20039;-68
2022/11/26 05:27:23;;;;;;;22.42;8.32;;;;;;;5.75;100.00;102668.66;5299212;28;20028;-69
2022/11/26 05:29:54;;;;;;;15.55;7.35;;;;;;;5.74;100.00;102666.97;5299909;28;20032;-68
2022/11/26 05:32:26;;;;;;;23.20;8.57;;;;;;;5.75;100.00;102673.84;5298441;28;20606;-69
2022/11/26 05:34:57;;;;;;;19.80;7.15;;;;;;;5.71;100.00;102682.66;5299362;28;20477;-68
2022/11/26 05:37:28;;;;;;;17.38;8.07;;;;;;;5.72;100.00;102677.44;5298426;28;20024;-68
2022/11/26 05:40:00;;;;;;;22.83;8.63;;;;;;;5.75;100.00;102676.44;5299440;28;20027;-69
2022/11/26 05:42:31;;;;;;;26.83;8.93;;;;;;;5.74;100.00;102686.00;5298035;28;20485;-69
2022/11/26 05:45:04;;;;;;;22.05;8.30;;;;;;;5.76;100.00;102679.00;5299540;28;20032;-69
2022/11/26 05:47:36;;;;;;;25.58;9.15;;;;;;;5.78;100.00;102682.38;5299582;28;20103;-69
2022/11/26 05:50:08;;;;;;;26.45;8.77;;;;;;;5.77;100.00;102683.31;5298644;28;20225;-69
2022/11/26 05:52:39;;;;;;;21.95;8.20;;;;;;;5.76;100.00;102688.56;5298723;28;20081;-69
2022/11/26 05:55:10;;;;;;;25.92;8.27;;;;;;;5.76;100.00;102691.16;5295945;28;20077;-68
2022/11/26 05:57:41;;;;;;;18.15;8.68;;;;;;;5.74;100.00;102693.81;5297556;28;20024;-69
2022/11/26 06:00:13;;;;;;;17.70;7.68;;;;;;;5.69;100.00;102692.28;5299068;28;20099;-69
2022/11/26 06:02:45;;;;;;;26.70;9.02;;;;;;;5.71;100.00;102695.66;5299684;28;20070;-69
2022/11/26 06:05:16;;;;;;;21.17;8.50;;;;;;;5.71;100.00;102712.09;5299282;28;20027;-69
2022/11/26 06:07:47;;;;;;;20.70;8.75;;;;;;;5.71;100.00;102706.91;5298655;28;20626;-69
2022/11/26 06:10:19;;;;;;;20.13;7.65;;;;;;;5.68;100.00;102708.75;5296491;28;20490;-69
2022/11/26 06:12:50;;;;;;;22.23;7.63;;;;;;;5.67;100.00;102709.69;5298345;28;20028;-70
2022/11/26 06:15:21;;;;;;;18.50;7.97;;;;;;;5.65;100.00;102711.50;5298329;28;20397;-69
2022/11/26 06:17:52;;;;;;;23.48;8.20;;;;;;;5.66;100.00;102706.22;5296738;28;20077;-69
2022/11/26 06:20:25;;;;;;;19.20;7.95;;;;;;;5.70;100.00;102709.56;5299218;28;20024;-70
2022/11/26 06:22:56;;;;;;;23.27;8.05;;;;;;;5.67;100.00;102701.88;5298905;28;20081;-69
2022/11/26 06:25:27;;;;;;;23.13;7.88;;;;;;;5.68;100.00;102707.00;5295899;28;20032;-69
2022/11/26 06:27:58;;;;;;;20.33;8.40;;;;;;;5.68;100.00;102709.59;5296468;28;20024;-70
2022/11/26 06:30:30;;;;;;;22.70;7.88;;;;;;;5.67;100.00;102710.53;5298483;28;20081;-69
2022/11/26 06:33:01;;;;;;;24.73;8.35;;;;;;;5.66;100.00;102711.44;5298851;28;20023;-70
2022/11/26 06:35:33;;;;;;;16.55;7.97;;;;;;;5.68;100.00;102711.38;5297556;28;20664;-69
2022/11/26 06:38:04;;;;;;;19.30;7.75;;;;;;;5.67;100.00;102713.13;5295471;28;20059;-69
2022/11/26 06:40:35;;;;;;;25.05;7.53;;;;;;;5.66;100.00;102714.03;5297187;28;20028;-69
2022/11/26 06:43:07;;;;;;;23.30;7.82;;;;;;;5.64;100.00;102713.22;5298559;28;20032;-70
2022/11/26 06:45:38;;;;;;;18.58;6.90;;;;;;;5.60;100.00;102722.88;5298008;28;20036;-72
2022/11/26 06:48:09;;;;;;;21.35;8.25;;;;;;;5.64;100.00;102722.78;5296692;28;20521;-69
2022/11/26 06:50:41;;;;;;;25.05;7.78;;;;;;;5.61;100.00;102718.56;5297073;28;20024;-69
2022/11/26 06:53:12;;;;;;;22.70;7.53;;;;;;;5.60;100.00;102729.81;5295959;28;20032;-69
2022/11/26 06:55:43;;;;;;;23.98;8.05;;;;;;;5.60;100.00;102725.47;5294868;28;20035;-69
2022/11/26 06:58:14;;;;;;;21.45;8.63;;;;;;;5.61;100.00;102723.75;5297447;28;20774;-69
2022/11/26 07:00:46;;;;;;;18.50;7.60;;;;;;;5.60;100.00;102725.47;5290127;28;20055;-70
2022/11/26 07:03:17;;;;;;;19.02;7.60;;;;;;;5.59;100.00;102736.78;5290973;28;20027;-69
2022/11/26 07:05:48;;;;;;;16.67;7.03;;;;;;;5.65;100.00;102734.91;5293343;28;20062;-70
2022/11/26 07:08:20;;;;;;;24.05;8.32;;;;;;;5.61;100.00;102740.19;5296521;28;20396;-69
2022/11/26 07:10:51;;;;;;;19.67;7.75;;;;;;;5.58;100.00;102735.09;5296661;28;20028;-69
2022/11/26 07:13:22;;;;;;;28.00;8.32;;;;;;;5.57;100.00;102751.59;5297245;28;20024;-70
2022/11/26 07:15:53;;;;;;;19.88;8.43;;;;;;;5.59;100.00;102756.75;5298079;28;20024;-70
2022/11/26 07:18:25;;;;;;;22.23;8.60;;;;;;;5.59;100.00;102754.13;5296584;28;20034;-70
2022/11/26 07:20:57;;;;;;;23.13;8.35;;;;;;;5.57;100.00;102751.59;5297754;28;20042;-69
2022/11/26 07:23:28;;;;;;;26.73;8.68;;;;;;;5.60;100.00;102750.63;5297213;28;20387;-69
2022/11/26 07:26:04;;;;;;;26.20;8.15;;;;;;;5.67;100.00;102754.72;5296675;28;20039;-69
2022/11/26 07:28:36;;;;;;;27.73;8.48;;;;;;;5.61;100.00;102766.19;5297065;28;20023;-70
2022/11/26 07:31:11;;;;;;;19.30;8.07;;;;;;;5.64;100.00;102754.81;5293425;28;21167;-69
2022/11/26 07:33:42;;;;;;;19.40;8.93;;;;;;;5.61;100.00;102766.19;5296979;28;20074;-69
2022/11/26 07:36:19;;;;;;;23.55;9.27;;;;;;;5.65;100.00;102766.09;5298077;28;20055;-70
2022/11/26 07:38:58;;;;;;;21.95;9.10;;;;;;;5.75;100.00;102765.72;5295637;28;20492;-69
2022/11/26 07:41:29;;;;;;;24.10;8.43;;;;;;;5.65;100.00;102766.94;5294372;28;20481;-70
2022/11/26 07:44:01;;;;;;;22.40;9.35;;;;;;;5.66;100.00;102768.63;5295209;28;20120;-69
2022/11/26 07:46:32;;;;;;;20.02;8.40;;;;;;;5.68;100.00;102761.63;5297675;28;20032;-70
2022/11/26 07:49:03;;;;;;;17.85;7.90;;;;;;;5.69;100.00;102765.94;5295691;28;20084;-69
2022/11/26 07:51:35;;;;;;;21.70;8.90;;;;;;;5.74;100.00;102763.19;5295944;28;20561;-70
2022/11/26 07:54:07;;;;;;;22.20;9.45;;;;;;;5.72;100.00;102763.25;5294866;28;20031;-69
2022/11/26 07:56:38;;;;;;;20.08;8.93;;;;;;;5.78;100.00;102772.56;5297452;28;20043;-70
2022/11/26 07:59:11;;;;;;;22.90;8.27;;;;;;;5.83;100.00;102762.84;5297454;28;20500;-69
2022/11/26 08:01:42;;;;;;;25.58;9.48;;;;;;;5.85;100.00;102759.31;5296504;28;20437;-69
2022/11/26 08:04:13;;;;;;;20.63;10.13;;;;;;;5.84;100.00;102767.19;5296429;28;20118;-70
2022/11/26 08:06:44;;;;;;;23.60;9.85;;;;;;;5.88;100.00;102770.53;5301111;28;20035;-69
2022/11/26 08:09:16;;;;;;;28.27;9.80;;;;;;;5.90;100.00;102773.91;5299995;28;20082;-69
2022/11/26 08:11:47;;;;;;;26.88;10.70;;;;;;;5.91;100.00;102773.88;5301629;28;20063;-70
2022/11/26 08:14:18;;;;;;;21.10;9.68;;;;;;;5.95;100.00;102766.84;5301582;28;20016;-69
2022/11/26 08:16:49;;;;;;;21.73;10.52;;;;;;;5.97;100.00;102772.84;5297280;28;20410;-69
2022/11/26 08:19:22;;;;;;;21.77;9.85;;;;;;;5.95;100.00;102762.50;5298123;28;20099;-70
2022/11/26 08:21:53;;;;;;;24.65;10.25;;;;;;;6.05;100.00;102776.84;5301208;28;20032;-70
2022/11/26 08:24:24;;;;;;;25.70;10.65;;;;;;;6.10;100.00;102774.13;5295161;28;20081;-70
2022/11/26 08:26:58;;;;;;;27.42;9.57;;;;;;;6.09;100.00;102773.25;5297647;28;20056;-69
2022/11/26 08:29:29;;;;;;;26.27;11.15;;;;;;;6.17;100.00;102779.94;5298762;28;20415;-69
2022/11/26 08:32:00;;;;;;;25.67;10.40;;;;;;;6.21;100.00;102779.78;5300331;28;20777;-69
2022/11/26 08:34:32;;;;;;;24.98;9.57;;;;;;;6.26;100.00;102780.47;5298443;28;20055;-70
2022/11/26 08:37:04;;;;;;;25.13;10.63;;;;;;;6.28;100.00;102783.00;5298938;28;20028;-71
2022/11/26 08:39:35;;;;;;;28.80;10.50;;;;;;;6.35;100.00;102787.09;5298143;28;20508;-69
2022/11/26 08:42:06;;;;;;;25.58;10.65;;;;;;;6.39;100.00;102780.88;5299180;28;20089;-70
2022/11/26 08:44:37;;;;;;;25.25;10.18;;;;;;;6.45;100.00;102793.69;5297632;28;20102;-70
2022/11/26 08:47:09;;;;;;;21.85;10.15;;;;;;;6.47;100.00;102784.03;5314873;22;20016;-69
2022/11/26 08:49:40;;;;;;;27.88;10.50;;;;;;;6.51;100.00;102782.16;5261995;28;20033;-69
2022/11/26 08:52:11;;;;;;;27.40;11.70;;;;;;;6.58;100.00;102791.47;5261257;28;20031;-69
2022/11/26 08:54:42;;;;;;;28.60;11.32;;;;;;;6.62;100.00;102787.00;5263433;28;20417;-69
2022/11/26 08:57:14;;;;;;;22.83;10.63;;;;;;;6.66;100.00;102776.41;5245028;28;20481;-69
2022/11/26 08:59:45;;;;;;;25.48;10.13;;;;;;;6.71;100.00;102786.66;5262223;28;20053;-69
2022/11/26 09:02:16;;;;;;;21.35;10.45;;;;;;;6.76;100.00;102792.53;5262132;28;20029;-69
2022/11/26 09:04:47;;;;;;;28.50;11.25;;;;;;;6.80;100.00;102794.13;5262194;28;20037;-69
2022/11/26 09:07:19;;;;;;;27.08;10.48;;;;;;;6.85;100.00;102792.19;5267792;28;20051;-69
2022/11/26 09:09:50;;;;;;;22.42;10.38;;;;;;;6.90;100.00;102794.63;5254318;28;20029;-69
2022/11/26 09:12:22;;;;;;;23.52;10.32;;;;;;;6.92;100.00;102801.47;5270835;28;20040;-69
2022/11/26 09:14:53;;;;;;;25.95;10.63;;;;;;;6.96;100.00;102807.41;5258423;28;20153;-69
2022/11/26 09:17:24;;;;;;;25.25;10.68;;;;;;;7.01;100.00;102805.50;5256300;28;20555;-69
2022/11/26 09:19:56;;;;;;;26.35;11.30;;;;;;;7.05;100.00;102807.06;5264111;28;20041;-69
2022/11/26 09:22:27;;;;;;;25.95;10.98;;;;;;;7.09;100.00;102807.81;5270193;28;20017;-70
2022/11/26 09:24:58;;;;;;;24.52;11.15;;;;;;;7.13;100.00;102809.38;5265779;28;20032;-69
2022/11/26 09:27:29;;;;;;;15.93;10.15;;;;;;;7.22;100.00;102816.84;5266524;28;20032;-69
2022/11/26 09:30:01;;;;;;;28.23;9.93;;;;;;;7.21;100.00;102820.38;5266895;28;20029;-69
2022/11/26 09:32:33;;;;;;;22.63;11.20;;;;;;;7.31;100.00;102825.16;5260522;28;20040;-69
2022/11/26 09:35:04;;;;;;;23.95;10.52;;;;;;;7.35;100.00;102814.59;5266597;28;20036;-69
2022/11/26 09:37:36;;;;;;;25.98;10.55;;;;;;;7.44;100.00;102828.13;5262371;28;20068;-69
2022/11/26 09:40:15;;;;;;;22.13;10.40;;;;;;;7.53;100.00;102827.75;5259013;28;20028;-69
2022/11/26 09:43:14;;;;;;;25.65;11.05;;;;;;;7.72;100.00;102830.44;5265698;28;20095;-72
2022/11/26 09:45:51;;;;;;;26.27;10.15;;;;;;;7.58;100.00;102827.56;5261570;28;20029;-69
2022/11/26 09:48:25;;;;;;;27.13;10.45;;;;;;;7.61;100.00;102818.75;5261670;28;20094;-68
2022/11/26 09:51:07;;;;;;;23.60;10.93;;;;;;;7.69;100.00;102820.16;5247269;28;20029;-69
2022/11/26 09:53:44;;;;;;;30.00;10.98;;;;;;;7.74;100.00;102819.97;5262534;28;20029;-68
2022/11/26 09:56:23;;;;;;;26.30;9.50;;;;;;;7.82;100.00;102814.44;5253733;28;20469;-69
2022/11/26 10:27:32;;;;;;;34.30;12.73;;;;;;;7.65;100.00;102818.59;5313928;27;20346;-73
2022/11/26 10:30:20;;;;;;;34.90;12.23;;;;;;;8.04;100.00;102821.28;5297779;28;20047;-75
2022/11/26 10:32:53;;;;;;;32.30;11.73;;;;;;;8.04;100.00;102812.63;5293027;28;20028;-75
2022/11/26 10:35:27;;;;;;;30.67;12.35;;;;;;;8.11;100.00;102805.38;5283323;28;20028;-74
2022/11/26 10:37:59;;;;;;;23.58;9.82;;;;;;;8.20;100.00;102794.53;5289790;28;20083;-74
2022/11/26 10:40:31;;;;;;;21.45;10.30;;;;;;;8.29;100.00;102791.50;5290816;22;20095;-68
2022/11/26 10:43:07;;;;;;;24.27;10.52;;;;;;;8.37;100.00;102794.69;5255499;28;20029;-68
2022/11/26 10:45:52;;;;;;;24.42;10.57;;;;;;;8.49;100.00;102799.34;5256223;28;20440;-68
2022/11/26 10:48:29;;;;;;;26.52;10.13;;;;;;;8.51;100.00;102794.03;5256901;28;20029;-68
2022/11/26 10:51:23;;;;;;;21.95;9.63;;;;;;;8.55;100.00;102774.69;5248575;28;20525;-67
2022/11/26 10:53:57;;;;;;;25.25;9.93;;;;;;;8.69;100.00;102795.84;5254124;28;20432;-69
2022/11/26 10:56:53;;;;;;;25.65;9.90;;;;;;;8.74;100.00;102795.63;5255854;28;20397;-69
2022/11/26 10:59:33;;;;;;;24.08;8.90;;;;;;;8.82;100.00;102793.50;5252819;28;20028;-68
2022/11/26 11:02:24;;;;;;;21.02;9.68;;;;;;;9.09;100.00;102794.00;5256373;28;20024;-68
2022/11/26 11:04:59;;;;;;;24.27;9.38;;;;;;;9.03;100.00;102786.44;5243200;28;20128;-67
2022/11/26 11:07:37;;;;;;;22.83;8.48;;;;;;;9.19;100.00;102787.38;5254451;28;20061;-68
2022/11/26 11:10:08;;;;;;;25.23;8.95;;;;;;;9.17;100.00;102785.78;5255497;28;20037;-68
2022/11/26 11:12:58;;;;;;;24.75;8.75;;;;;;;9.37;100.00;102779.59;5255020;28;20035;-68
2022/11/26 11:15:32;;;;;;;23.45;8.65;;;;;;;9.36;100.00;102783.97;5253800;28;20028;-69
2022/11/26 11:18:11;;;;;;;19.58;8.15;;;;;;;9.54;100.00;102794.44;5260901;28;20053;-69
2022/11/26 11:20:49;;;;;;;23.85;8.48;;;;;;;9.65;100.00;102792.97;5255337;28;20101;-69
2022/11/26 11:23:24;;;;;;;25.05;8.00;;;;;;;9.66;100.00;102793.81;5251685;28;20029;-69
2022/11/26 11:26:17;;;;;;;22.15;7.40;;;;;;;9.77;100.00;102793.28;5248837;28;20486;-71
2022/11/26 11:28:51;;;;;;;26.52;8.50;;;;;;;9.82;100.00;102780.84;5253667;28;20132;-69
2022/11/26 11:31:24;;;;;;;19.13;7.15;;;;;;;9.97;100.00;102786.13;5252568;28;20418;-70
2022/11/26 11:34:18;;;;;;;18.33;7.53;;;;;;;10.21;100.00;102788.41;5254739;28;20029;-69
2022/11/26 11:37:12;;;;;;;18.63;6.53;;;;;;;10.23;100.00;102778.72;5248896;28;20025;-68
2022/11/26 11:39:44;;;;;;;20.75;6.88;;;;;;;10.21;100.00;102788.41;5236422;28;20387;-69
2022/11/26 11:42:28;;;;;;;27.92;7.47;;;;;;;10.34;100.00;102784.28;5241674;28;20040;-68
2022/11/26 11:45:00;;;;;;;21.13;6.82;;;;;;;10.20;100.00;102778.88;5231578;28;20029;-69
2022/11/26 11:47:49;;;;;;;16.47;6.20;;;;;;;10.42;100.00;102787.31;5249779;28;20045;-68
2022/11/26 11:50:29;;;;;;;24.80;6.80;;;;;;;10.36;100.00;102784.16;5237206;28;20038;-69
2022/11/26 11:53:22;;;;;;;24.10;7.10;;;;;;;10.34;100.00;102783.41;5234163;28;20033;-69
2022/11/26 11:56:11;;;;;;;23.20;7.78;;;;;;;10.33;100.00;102772.06;5238645;28;20032;-69
2022/11/26 11:59:10;;;;;;;18.63;6.65;;;;;;;10.48;100.00;102766.00;5237032;28;20036;-69
2022/11/26 12:02:06;;;;;;;18.20;5.57;;;;;;;10.45;100.00;102770.56;5240208;28;20029;-69
2022/11/26 12:05:12;;;;;;;21.15;6.80;;;;;;;10.57;100.00;102766.44;5240578;28;20065;-67
2022/11/26 12:07:55;;;;;;;26.98;6.97;;;;;;;10.52;100.00;102753.59;5239214;28;20032;-69
2022/11/26 12:10:38;;;;;;;23.63;6.38;;;;;;;10.50;100.00;102760.72;5236696;28;20112;-69
2022/11/26 12:13:13;;;;;;;18.08;5.75;;;;;;;10.48;100.00;102760.78;5239286;28;20506;-69
2022/11/26 12:16:04;;;;;;;21.85;6.30;;;;;;;10.61;100.00;102773.25;5241147;28;20025;-68
2022/11/26 12:18:48;;;;;;;18.02;5.78;;;;;;;10.65;100.00;102770.34;5237594;28;20055;-69